Strona główna
METAR-TAF:

METAR-TAF

Lotnisko :

Port lotniczy Londyn-Oksford

Oksford, Anglia

Szerokość geograficzna: 51-50-13N, Długość geograficzna: 1-19-12W, wysokość: 82 m

Aktualna obserwacja pogody

Raport powstał 5 godziny i 28 minut temu, godzina 20:50 UTC
Wiatr 4 kt od zachodnio-południowy zachód
Temperatura 16°C
Wilgotność 82%
Ciśnienie 1014 hPa
Widzialność 10 km lub więcej
Mało chmury na wysokości 3000 ft

METAR: EGTK 202050Z 24004KT 9999 FEW030 16/13 Q1014

czas: 03:18 (02:18 UTC)

Prognoza

Raport powstał 9 godziny i 22 minut temu, godzina 16:56 UTC
Prognoza ważna od 20 godzina 18 UTC do 20 godzina 22 UTC
Wiatr 9 kt od zachodnio-południowy zachód
Widzialność 10 km lub więcej
Rozproszone chmury na wysokości 3500 ft

TAF: EGTK 201656Z 2018/2022 25009KT 9999 SCT035

Obserwacja i prognoza pogody dla ponad 4000 lotnisk (raport METAR i TAF).

Dostępne stacje oznaczono żółtymi i czerwonymi punktami na mapie.

Najedź kursorem aby zobaczyć nazwę stacji.

Kliknij aby zobaczyć obserwacje i prognozy pogody.

Aby zmienić mapę: kliknij na zielony przycisk z czarnym krzyżykiem, aby powiększyć; na zielony przycisk z myślnikiem, aby pomniejszyć; na zielone strzałki, aby przejść do map sąsiednich.


METAR-TAF: